createdAt,value
2018-09-20T00:00:27.003Z,64.60
2018-09-20T00:02:54.507Z,64.80
2018-09-20T00:05:22.059Z,65.00
2018-09-20T00:07:49.551Z,64.60
2018-09-20T00:10:17.145Z,64.20
2018-09-20T00:12:44.651Z,64.00
2018-09-20T00:15:13.894Z,64.20
2018-09-20T00:17:41.466Z,64.50
2018-09-20T00:20:09.074Z,64.80
2018-09-20T00:22:36.734Z,64.90
2018-09-20T00:25:04.268Z,65.10
2018-09-20T00:27:32.059Z,65.20
2018-09-20T00:29:59.791Z,65.50
2018-09-20T00:32:27.278Z,65.60
2018-09-20T00:34:54.787Z,65.60
2018-09-20T00:37:22.571Z,65.80
2018-09-20T00:39:50.069Z,66.30
2018-09-20T00:42:17.620Z,65.80
2018-09-20T00:44:45.122Z,66.70
2018-09-20T00:47:12.650Z,67.00
2018-09-20T00:49:40.191Z,66.80
2018-09-20T00:52:07.730Z,67.50
2018-09-20T00:54:35.325Z,67.40
2018-09-20T00:57:02.906Z,68.10
2018-09-20T00:59:30.520Z,67.80
2018-09-20T01:01:58.179Z,67.90
2018-09-20T01:04:25.748Z,67.80
2018-09-20T01:06:53.258Z,67.80
2018-09-20T01:09:20.786Z,67.90
2018-09-20T01:11:48.580Z,67.60
2018-09-20T01:14:16.359Z,67.70
2018-09-20T01:16:43.861Z,68.10
2018-09-20T01:19:11.455Z,67.80
2018-09-20T01:21:39.053Z,67.70
2018-09-20T01:24:06.632Z,67.50
2018-09-20T01:26:34.203Z,67.00
2018-09-20T01:29:01.875Z,67.20
2018-09-20T01:31:29.398Z,67.00
2018-09-20T01:33:56.927Z,66.40
2018-09-20T01:36:24.453Z,66.60
2018-09-20T01:38:52.483Z,66.30
2018-09-20T01:41:19.990Z,66.30
2018-09-20T01:43:47.606Z,66.60
2018-09-20T01:46:15.126Z,66.00
2018-09-20T01:48:42.677Z,66.00
2018-09-20T01:51:10.179Z,66.00
2018-09-20T01:53:38.006Z,66.10
2018-09-20T01:56:06.370Z,66.40
2018-09-20T01:58:33.989Z,66.90
2018-09-20T02:01:01.909Z,67.40
2018-09-20T02:03:29.502Z,67.40
2018-09-20T02:05:57.057Z,67.60
2018-09-20T02:08:24.584Z,67.60
2018-09-20T02:10:52.103Z,67.40
2018-09-20T02:13:19.618Z,67.00
2018-09-20T02:15:47.181Z,66.70
2018-09-20T02:18:14.657Z,66.90
2018-09-20T02:20:42.246Z,67.50
2018-09-20T02:23:09.943Z,67.90
2018-09-20T02:25:37.524Z,68.00
2018-09-20T02:28:05.050Z,68.40
2018-09-20T02:30:32.689Z,68.50
2018-09-20T02:33:00.180Z,68.70
2018-09-20T02:35:29.162Z,68.80
2018-09-20T02:37:56.737Z,69.20
2018-09-20T02:40:24.310Z,68.90
2018-09-20T02:42:51.841Z,68.70
2018-09-20T02:45:19.395Z,68.80
2018-09-20T02:47:46.959Z,68.80
2018-09-20T02:50:14.373Z,68.70
2018-09-20T02:52:42.229Z,68.80
2018-09-20T02:55:09.760Z,68.90
2018-09-20T02:57:37.338Z,69.10
2018-09-20T03:00:05.070Z,69.30
2018-09-20T03:02:32.632Z,69.00
2018-09-20T03:05:00.138Z,69.40
2018-09-20T03:07:27.622Z,69.60
2018-09-20T03:09:55.167Z,69.60
2018-09-20T03:12:22.683Z,69.80
2018-09-20T03:14:50.341Z,70.00
2018-09-20T03:17:23.521Z,70.20
2018-09-20T03:19:51.150Z,69.70
2018-09-20T03:22:18.655Z,70.20
2018-09-20T03:24:46.502Z,70.10
2018-09-20T03:27:13.961Z,70.10
2018-09-20T03:29:41.488Z,70.30
2018-09-20T03:32:08.983Z,70.10
2018-09-20T03:34:36.559Z,70.30
2018-09-20T03:37:04.353Z,70.10
2018-09-20T03:39:32.524Z,70.30
2018-09-20T03:42:00.033Z,69.90
2018-09-20T03:44:27.581Z,70.00
2018-09-20T03:46:55.207Z,70.10
2018-09-20T03:49:22.759Z,69.70
2018-09-20T03:51:50.293Z,69.70
2018-09-20T03:54:17.890Z,69.60
2018-09-20T03:56:45.391Z,69.40
2018-09-20T03:59:12.881Z,68.70
2018-09-20T04:01:40.419Z,68.90
2018-09-20T04:04:07.939Z,68.30
2018-09-20T04:06:35.717Z,68.40
2018-09-20T04:09:04.978Z,68.50
2018-09-20T04:11:32.478Z,68.80
2018-09-20T04:14:00.081Z,69.10
2018-09-20T04:16:27.613Z,69.40
2018-09-20T04:18:55.150Z,69.60
2018-09-20T04:21:28.207Z,69.80
2018-09-20T04:23:55.711Z,69.90
2018-09-20T04:26:23.408Z,69.60
2018-09-20T04:28:51.278Z,69.80
2018-09-20T04:31:18.887Z,70.10
2018-09-20T04:33:46.454Z,70.10
2018-09-20T04:36:13.961Z,70.20
2018-09-20T04:38:41.630Z,70.60
2018-09-20T04:41:09.083Z,70.30
2018-09-20T04:43:36.637Z,70.40
2018-09-20T04:46:04.195Z,70.60
2018-09-20T04:48:31.686Z,70.60
2018-09-20T04:50:59.225Z,70.80
2018-09-20T04:53:26.919Z,70.80
2018-09-20T04:55:55.107Z,70.70
2018-09-20T04:58:22.602Z,71.00
2018-09-20T05:00:50.126Z,70.80
2018-09-20T05:03:17.691Z,70.60
2018-09-20T05:05:45.184Z,70.80
2018-09-20T05:08:13.075Z,71.10
2018-09-20T05:10:41.229Z,71.10
2018-09-20T05:13:08.793Z,70.90
2018-09-20T05:15:36.356Z,71.10
2018-09-20T05:18:03.840Z,71.30
2018-09-20T05:20:31.327Z,71.40
2018-09-20T05:22:58.863Z,71.80
2018-09-20T05:25:27.384Z,71.90
2018-09-20T05:27:55.274Z,71.80
2018-09-20T05:30:22.799Z,71.90
2018-09-20T05:32:50.327Z,71.70
2018-09-20T05:35:18.090Z,71.80
2018-09-20T05:37:45.938Z,71.80
2018-09-20T05:40:13.539Z,71.60
2018-09-20T05:42:41.080Z,71.80
2018-09-20T05:45:08.973Z,71.80
2018-09-20T05:47:37.431Z,71.80
2018-09-20T05:50:05.430Z,71.80
2018-09-20T05:52:32.969Z,72.00
2018-09-20T05:55:01.793Z,71.60
2018-09-20T05:57:44.186Z,71.50
2018-09-20T06:00:13.715Z,71.50
2018-09-20T06:02:51.335Z,71.50
2018-09-20T06:05:23.710Z,71.10
2018-09-20T06:08:05.467Z,71.30
2018-09-20T06:10:49.280Z,71.40
2018-09-20T06:13:17.368Z,72.50
2018-09-20T06:15:46.957Z,71.60
2018-09-20T06:18:15.524Z,71.40
2018-09-20T06:20:44.160Z,71.80
2018-09-20T06:23:13.724Z,71.10
2018-09-20T06:25:45.812Z,70.90
2018-09-20T06:28:15.118Z,70.30
2018-09-20T06:30:44.312Z,70.40
2018-09-20T06:33:15.005Z,70.70
2018-09-20T06:35:49.367Z,71.00
2018-09-20T06:38:26.249Z,70.70
2018-09-20T06:40:55.418Z,70.80
2018-09-20T06:43:24.674Z,70.60
2018-09-20T06:46:00.027Z,70.90
2018-09-20T06:48:29.915Z,70.80
2018-09-20T06:50:59.225Z,70.60
2018-09-20T06:53:30.659Z,70.80
2018-09-20T06:55:59.205Z,70.80
2018-09-20T06:58:28.716Z,70.90
2018-09-20T07:00:57.633Z,70.90
2018-09-20T07:03:27.085Z,71.00
2018-09-20T07:05:57.341Z,70.50
2018-09-20T07:08:25.390Z,70.50
2018-09-20T07:10:53.031Z,70.20
2018-09-20T07:13:23.076Z,70.00
2018-09-20T07:15:55.289Z,70.00
2018-09-20T07:18:28.843Z,70.50
2018-09-20T07:20:57.054Z,71.10
2018-09-20T07:23:26.587Z,71.70
2018-09-20T07:25:58.257Z,71.90
2018-09-20T07:31:35.413Z,70.50
2018-09-20T07:34:13.520Z,70.00
2018-09-20T07:36:46.012Z,69.80
2018-09-20T07:39:16.093Z,70.90
2018-09-20T07:41:49.763Z,69.40
2018-09-20T07:44:20.798Z,69.50
2018-09-20T07:46:59.024Z,69.10
2018-09-20T07:49:37.178Z,70.10
2018-09-20T07:52:06.721Z,70.10
2018-09-20T07:54:45.797Z,69.70
2018-09-20T07:57:24.045Z,68.60
2018-09-20T07:59:53.458Z,69.00
2018-09-20T08:02:22.316Z,68.50
2018-09-20T08:04:51.073Z,68.50
2018-09-20T08:07:20.598Z,68.70
2018-09-20T08:09:49.287Z,68.00
2018-09-20T08:12:21.618Z,68.40
2018-09-20T08:14:53.507Z,68.60
2018-09-20T08:20:18.706Z,67.90
2018-09-20T08:22:48.511Z,67.50
2018-09-20T08:25:26.219Z,67.00
2018-09-20T08:28:01.119Z,66.50
2018-09-20T08:30:31.031Z,66.60
2018-09-20T08:33:01.459Z,66.00
2018-09-20T08:35:31.490Z,65.90
2018-09-20T08:38:04.732Z,65.70
2018-09-20T08:40:39.921Z,65.80
2018-09-20T08:43:10.582Z,64.50
2018-09-20T08:45:40.016Z,64.60
2018-09-20T08:48:10.357Z,64.30
2018-09-20T08:50:57.914Z,63.90
2018-09-20T08:53:30.211Z,63.80
2018-09-20T08:56:03.761Z,63.30
2018-09-20T08:58:56.497Z,63.10
2018-09-20T09:01:26.110Z,62.60
2018-09-20T09:04:02.063Z,62.30
2018-09-20T09:06:33.733Z,62.00
2018-09-20T09:09:13.532Z,62.30
2018-09-20T09:11:50.333Z,60.90
2018-09-20T09:14:33.459Z,60.20
2018-09-20T09:19:45.458Z,59.40
2018-09-20T09:24:59.566Z,58.80
2018-09-20T09:27:39.931Z,58.30
2018-09-20T09:30:21.716Z,57.90
2018-09-20T09:33:04.959Z,58.50
2018-09-20T09:35:40.120Z,58.70
2018-09-20T09:38:13.082Z,58.70
2018-09-20T09:40:56.699Z,58.90
2018-09-20T09:43:25.139Z,57.50
2018-09-20T09:48:52.257Z,56.80
2018-09-20T09:51:41.616Z,56.70
2018-09-20T09:54:20.510Z,55.90
2018-09-20T09:56:55.616Z,54.90
2018-09-20T09:59:29.259Z,54.80
2018-09-20T10:02:02.982Z,55.00
2018-09-20T10:04:35.219Z,55.40
2018-09-20T10:07:03.425Z,54.90
2018-09-20T10:09:34.297Z,53.80
2018-09-20T10:12:04.962Z,52.80
2018-09-20T10:14:43.896Z,53.30
2018-09-20T10:17:19.700Z,53.90
2018-09-20T10:19:50.427Z,53.80
2018-09-20T10:22:21.194Z,54.00
2018-09-20T10:24:50.335Z,53.60
2018-09-20T10:27:24.347Z,54.00
2018-09-20T10:29:58.486Z,53.60
2018-09-20T10:32:30.372Z,50.80
2018-09-20T10:34:59.546Z,49.90
2018-09-20T10:37:38.543Z,50.10
2018-09-20T10:40:06.602Z,49.70
2018-09-20T10:42:39.194Z,49.40
2018-09-20T10:45:09.265Z,50.00
2018-09-20T10:47:38.253Z,50.50
2018-09-20T10:50:06.913Z,50.40
2018-09-20T10:52:45.521Z,49.90
2018-09-20T10:55:17.945Z,50.40
2018-09-20T10:58:05.498Z,49.80
2018-09-20T11:00:40.263Z,49.20
2018-09-20T11:03:13.787Z,49.20
2018-09-20T11:05:43.602Z,48.70
2018-09-20T11:08:24.320Z,48.80
2018-09-20T11:10:58.336Z,47.80
2018-09-20T11:13:31.438Z,47.30
2018-09-20T11:16:07.877Z,45.40
2018-09-20T11:18:39.909Z,45.50
2018-09-20T11:21:18.524Z,45.40
2018-09-20T11:24:05.062Z,46.00
2018-09-20T11:26:54.526Z,46.10
2018-09-20T11:29:24.817Z,46.20
2018-09-20T11:31:54.172Z,45.90
2018-09-20T11:34:27.042Z,46.70
2018-09-20T11:37:01.950Z,46.90
2018-09-20T11:39:47.375Z,45.30
2018-09-20T11:42:19.368Z,45.10
2018-09-20T11:44:50.416Z,45.10
2018-09-20T11:47:19.500Z,44.40
2018-09-20T11:50:10.859Z,45.20
2018-09-20T11:52:46.212Z,45.00
2018-09-20T11:55:27.651Z,44.00
2018-09-20T11:57:57.788Z,44.30
2018-09-20T12:00:32.390Z,42.90
2018-09-20T12:03:08.852Z,44.10
2018-09-20T12:05:42.016Z,44.10
2018-09-20T12:08:12.547Z,43.10
2018-09-20T12:10:42.643Z,42.10
2018-09-20T12:13:39.609Z,41.90
2018-09-20T12:16:11.617Z,41.70
2018-09-20T12:18:58.141Z,42.10
2018-09-20T12:24:09.163Z,41.90
2018-09-20T12:27:28.618Z,42.50
2018-09-20T12:32:50.531Z,40.40
2018-09-20T12:35:28.235Z,40.00
2018-09-20T12:38:03.953Z,40.10
2018-09-20T12:40:38.212Z,40.30
2018-09-20T12:43:21.507Z,40.20
2018-09-20T12:51:42.012Z,41.10
2018-09-20T12:54:21.559Z,40.80
2018-09-20T12:56:55.589Z,41.40
2018-09-20T12:59:27.225Z,41.00
2018-09-20T13:01:59.961Z,40.10
2018-09-20T13:04:34.973Z,39.10
2018-09-20T13:10:00.208Z,39.50
2018-09-20T13:12:40.912Z,39.80
2018-09-20T13:18:52.473Z,39.70
2018-09-20T13:21:23.161Z,40.00
2018-09-20T13:23:52.998Z,40.20
2018-09-20T13:26:27.293Z,40.20
2018-09-20T13:31:39.390Z,39.80
2018-09-20T13:34:14.314Z,40.10
2018-09-20T13:36:47.020Z,39.60
2018-09-20T13:39:15.469Z,39.60
2018-09-20T13:41:43.549Z,39.90
2018-09-20T13:44:11.476Z,40.30
2018-09-20T13:46:40.065Z,40.10
2018-09-20T13:49:08.736Z,40.40
2018-09-20T13:51:42.804Z,40.30
2018-09-20T13:54:11.481Z,41.00
2018-09-20T13:56:53.998Z,41.80
2018-09-20T13:59:23.708Z,41.50
2018-09-20T14:02:09.576Z,40.90
2018-09-20T14:04:38.683Z,41.20
2018-09-20T14:07:12.912Z,41.40
2018-09-20T14:09:46.711Z,41.40
2018-09-20T14:12:17.980Z,41.20
2018-09-20T14:14:58.875Z,41.20
2018-09-20T14:17:30.350Z,41.20
2018-09-20T14:20:06.218Z,40.30
2018-09-20T14:22:39.627Z,40.90
2018-09-20T14:25:11.857Z,40.70
2018-09-20T14:27:43.792Z,40.70
2018-09-20T14:30:19.860Z,40.30
2018-09-20T14:33:06.236Z,40.00
2018-09-20T14:35:37.750Z,40.80
2018-09-20T14:38:06.762Z,41.40
2018-09-20T14:40:36.237Z,40.90
2018-09-20T14:43:07.914Z,40.60
2018-09-20T14:45:39.265Z,41.10
2018-09-20T14:48:08.658Z,40.10
2018-09-20T14:50:38.240Z,40.50
2018-09-20T14:53:07.524Z,40.20
2018-09-20T14:55:42.422Z,40.80
2018-09-20T14:58:12.880Z,40.30
2018-09-20T15:00:44.113Z,40.50
2018-09-20T15:03:13.990Z,41.20
2018-09-20T15:05:46.168Z,40.90
2018-09-20T15:08:15.423Z,41.00
2018-09-20T15:10:44.964Z,40.70
2018-09-20T15:13:14.857Z,40.50
2018-09-20T15:15:48.881Z,40.50
2018-09-20T15:18:23.112Z,40.80
2018-09-20T15:23:41.756Z,41.10
2018-09-20T15:26:14.371Z,40.60
2018-09-20T15:28:53.369Z,40.60
2018-09-20T15:31:23.544Z,40.30
2018-09-20T15:33:56.425Z,40.60
2018-09-20T15:36:38.024Z,40.50
2018-09-20T15:39:09.187Z,41.20
2018-09-20T15:41:46.850Z,40.60
2018-09-20T15:44:18.503Z,41.10
2018-09-20T15:46:49.723Z,41.10
2018-09-20T15:49:18.036Z,40.90
2018-09-20T15:51:48.479Z,40.80
2018-09-20T15:54:18.456Z,41.20
2018-09-20T16:00:12.714Z,40.90
2018-09-20T16:05:39.705Z,41.20
2018-09-20T16:11:03.616Z,41.00
2018-09-20T16:13:45.379Z,40.90
2018-09-20T16:16:17.245Z,41.40
2018-09-20T16:18:50.449Z,41.60
2018-09-20T16:21:22.412Z,41.90
2018-09-20T16:24:01.705Z,41.60
2018-09-20T16:26:31.478Z,42.00
2018-09-20T16:29:15.105Z,41.90
2018-09-20T16:32:22.159Z,42.90
2018-09-20T16:35:12.178Z,43.50
2018-09-20T16:37:55.691Z,43.80
2018-09-20T16:40:25.808Z,43.70
2018-09-20T16:42:56.129Z,44.00
2018-09-20T16:45:25.721Z,44.30
2018-09-20T16:47:54.394Z,43.70
2018-09-20T16:50:23.644Z,43.90
2018-09-20T16:52:52.905Z,44.40
2018-09-20T16:55:21.429Z,44.60
2018-09-20T16:57:51.324Z,44.50
2018-09-20T17:00:24.847Z,44.70
2018-09-20T17:02:53.681Z,44.50
2018-09-20T17:05:22.803Z,44.90
2018-09-20T17:07:51.212Z,44.70
2018-09-20T17:10:26.884Z,44.80
2018-09-20T17:12:59.975Z,44.70
2018-09-20T17:15:28.336Z,45.00
2018-09-20T17:17:58.933Z,44.90
2018-09-20T17:20:28.225Z,45.10
2018-09-20T17:22:56.585Z,45.50
2018-09-20T17:25:25.874Z,46.00
2018-09-20T17:27:54.517Z,45.90
2018-09-20T17:30:22.939Z,46.10
2018-09-20T17:32:56.132Z,46.50
2018-09-20T17:35:30.236Z,46.50
2018-09-20T17:38:01.339Z,47.10
2018-09-20T17:40:31.823Z,47.50
2018-09-20T17:43:06.972Z,47.60
2018-09-20T17:45:36.297Z,47.90
2018-09-20T17:48:28.214Z,48.60
2018-09-20T17:51:02.426Z,48.80
2018-09-20T17:53:31.274Z,49.40
2018-09-20T17:56:08.528Z,49.70
2018-09-20T17:58:39.960Z,50.10
2018-09-20T18:01:14.440Z,50.50
2018-09-20T18:03:42.382Z,50.80
2018-09-20T18:06:12.062Z,51.10
2018-09-20T18:08:41.340Z,52.20
2018-09-20T18:11:13.225Z,52.20
2018-09-20T18:13:41.709Z,52.40
2018-09-20T18:16:14.780Z,52.60
2018-09-20T18:18:43.876Z,53.00
2018-09-20T18:21:13.989Z,53.00
2018-09-20T18:23:45.085Z,53.40
2018-09-20T18:26:13.450Z,53.70
2018-09-20T18:28:42.216Z,53.90
2018-09-20T18:31:10.966Z,54.00
2018-09-20T18:33:43.694Z,53.90
2018-09-20T18:36:35.552Z,53.90
2018-09-20T18:43:14.265Z,54.10
2018-09-20T18:48:38.321Z,54.10
2018-09-20T18:51:09.511Z,54.10
2018-09-20T18:53:38.316Z,54.30
2018-09-20T18:56:07.563Z,54.50
2018-09-20T18:58:39.225Z,54.80
2018-09-20T19:01:14.832Z,54.70
2018-09-20T19:03:44.402Z,54.60
2018-09-20T19:06:16.619Z,54.80
2018-09-20T19:08:50.168Z,54.70
2018-09-20T19:11:20.111Z,54.80
2018-09-20T19:13:50.137Z,55.00
2018-09-20T19:16:19.168Z,55.60
2018-09-20T19:18:50.140Z,55.10
2018-09-20T19:21:22.339Z,55.40
2018-09-20T19:23:52.277Z,55.50
2018-09-20T19:26:22.869Z,55.90
2018-09-20T19:28:51.040Z,55.90
2018-09-20T19:31:20.687Z,56.10
2018-09-20T19:33:56.025Z,56.30
2018-09-20T19:36:30.012Z,56.60
2018-09-20T19:39:00.421Z,56.40
2018-09-20T19:41:37.421Z,56.80
2018-09-20T19:44:10.425Z,56.80
2018-09-20T19:46:40.404Z,56.80
2018-09-20T19:49:12.970Z,57.10
2018-09-20T19:51:46.638Z,57.00
2018-09-20T19:54:22.170Z,57.10
2018-09-20T19:56:52.681Z,57.40
2018-09-20T19:59:22.664Z,57.40
2018-09-20T20:01:50.659Z,57.30
2018-09-20T20:04:18.271Z,57.50
2018-09-20T20:06:51.128Z,57.60
2018-09-20T20:09:19.540Z,57.50
2018-09-20T20:11:47.936Z,57.60
2018-09-20T20:14:16.093Z,57.80
2018-09-20T20:16:45.259Z,57.90
2018-09-20T20:19:12.851Z,58.00
2018-09-20T20:21:40.477Z,58.10
2018-09-20T20:24:07.996Z,58.20
2018-09-20T20:26:36.722Z,58.30
2018-09-20T20:29:05.735Z,58.30
2018-09-20T20:31:34.049Z,58.20
2018-09-20T20:34:02.062Z,58.30
2018-09-20T20:36:30.754Z,58.70
2018-09-20T20:38:58.474Z,58.70
2018-09-20T20:41:25.990Z,58.90
2018-09-20T20:43:54.005Z,58.90
2018-09-20T20:46:21.734Z,59.00
2018-09-20T20:48:49.994Z,59.20
2018-09-20T20:51:18.432Z,59.40
2018-09-20T20:53:46.164Z,59.40
2018-09-20T20:58:49.319Z,59.60
2018-09-20T21:01:19.552Z,59.70
2018-09-20T21:03:47.852Z,59.70
2018-09-20T21:06:16.678Z,59.90
2018-09-20T21:08:44.357Z,60.20
2018-09-20T21:11:12.398Z,60.20
2018-09-20T21:13:40.442Z,60.10
2018-09-20T21:16:08.138Z,60.00
2018-09-20T21:18:35.747Z,60.00
2018-09-20T21:21:03.708Z,60.10
2018-09-20T21:23:31.788Z,61.10
2018-09-20T21:25:59.387Z,60.40
2018-09-20T21:28:26.951Z,60.60
2018-09-20T21:30:54.571Z,60.70
2018-09-20T21:33:22.100Z,60.70
2018-09-20T21:35:49.695Z,60.80
2018-09-20T21:38:17.276Z,60.70
2018-09-20T21:40:44.917Z,60.60
2018-09-20T21:43:12.392Z,60.50
2018-09-20T21:45:39.921Z,60.50
2018-09-20T21:48:07.591Z,60.90
2018-09-20T21:50:35.131Z,60.90
2018-09-20T21:53:02.638Z,61.10
2018-09-20T21:55:30.157Z,61.20
2018-09-20T21:57:57.882Z,61.30
2018-09-20T22:00:25.475Z,62.10
2018-09-20T22:02:58.768Z,61.50
2018-09-20T22:05:26.292Z,61.60
2018-09-20T22:07:53.892Z,61.80
2018-09-20T22:10:21.551Z,61.80
2018-09-20T22:12:49.289Z,61.40
2018-09-20T22:15:21.517Z,61.60
2018-09-20T22:17:49.241Z,61.80
2018-09-20T22:20:16.909Z,61.80
2018-09-20T22:22:44.891Z,61.90
2018-09-20T22:25:12.862Z,62.20
2018-09-20T22:27:40.707Z,62.30
2018-09-20T22:30:08.796Z,62.40
2018-09-20T22:32:36.896Z,62.40
2018-09-20T22:35:04.986Z,62.30
2018-09-20T22:37:32.887Z,62.20
2018-09-20T22:40:00.501Z,62.50
2018-09-20T22:42:28.189Z,62.40
2018-09-20T22:44:55.924Z,62.30
2018-09-20T22:47:23.523Z,62.10
2018-09-20T22:49:51.956Z,62.20
2018-09-20T22:52:19.542Z,62.20
2018-09-20T22:54:47.239Z,62.40
2018-09-20T22:57:14.908Z,62.50
2018-09-20T22:59:42.644Z,62.60
2018-09-20T23:02:10.571Z,62.70
2018-09-20T23:04:38.268Z,62.90
2018-09-20T23:07:06.126Z,62.90
2018-09-20T23:09:33.751Z,63.10
2018-09-20T23:12:01.395Z,63.00
2018-09-20T23:14:29.115Z,63.10
2018-09-20T23:16:57.065Z,63.30
2018-09-20T23:19:24.712Z,63.30
2018-09-20T23:21:52.451Z,63.40
2018-09-20T23:24:20.071Z,63.50
2018-09-20T23:26:47.644Z,63.40
2018-09-20T23:29:15.299Z,63.20
2018-09-20T23:31:43.053Z,63.10
2018-09-20T23:34:11.563Z,63.40
2018-09-20T23:36:39.154Z,63.20
2018-09-20T23:39:08.923Z,63.10
2018-09-20T23:41:36.605Z,62.90
2018-09-20T23:44:04.340Z,63.20
2018-09-20T23:46:31.974Z,63.10
2018-09-20T23:48:59.566Z,63.20
2018-09-20T23:51:27.403Z,63.20
2018-09-20T23:53:55.104Z,63.20
2018-09-20T23:56:22.777Z,63.50
2018-09-20T23:58:50.456Z,63.70
